Flight Track Log - Related Links

Times and Time Zones

All times are in EDT time to prevent confusion due to time zone crossing. See the JBU917 flight status page for this flight to view local times or setup timezone preferences in your user account.

Time Position Orientation Groundspeed Altitude Reporting Facility
EDT Latitude Longitude Course Direction KTS MPH feet Rate Location/Type
Mon 04:19:43 PM 40.6333 -73.7333 304° West 180 207 2,000  Level New York TRACON
Mon 04:20:43 PM 40.6167 -73.6500 105° East 242 278 3,800 2,350 Climbing New York TRACON
Mon 04:21:00 PM 40.7852 -74.0537 304° West  Level FlightAware Approximate
Mon 04:21:43 PM 40.6500 -73.5667 62° Northeast 293 337 6,700  Level New York TRACON
Mon 04:22:00 PM 40.8360 -74.1551 304° West  Level FlightAware Approximate
Mon 04:22:43 PM 40.7167 -73.5167 30° Northeast 285 328 9,900  Level New York TRACON
Mon 04:23:00 PM 40.8880 -74.2556 306° West  Level FlightAware Approximate
Mon 04:23:43 PM 40.8000 -73.4667 24° Northeast 337 388 11,500  Level New York TRACON
Mon 04:24:00 PM 40.9418 -74.3544 306° West  Level FlightAware Approximate
Mon 04:24:43 PM 40.8833 -73.5167 336° Northwest 352 405 14,000  Level New York TRACON
Mon 04:25:00 PM 40.9992 -74.4484 304° West  Level FlightAware Approximate
Mon 04:25:43 PM 40.9667 -73.5833 329° Northwest 358 412 16,600  Level New York TRACON
Mon 04:27:48 PM 41.0578 -73.8144 298° West 358 412 17,000 97 Climbing New York Center
Mon 04:28:48 PM 41.0692 -73.9417 277° West 358 412 16,900 100 Descending New York Center
Mon 04:29:48 PM 41.0822 -74.0717 278° West 353 406 17,200 1,271 Climbing New York Center
Mon 04:30:46 PM 41.0950 -74.2017 277° West 359 413 19,400 2,118 Climbing New York Center
Mon 04:31:47 PM 41.1228 -74.3242 287° West 349 402 21,400 1,800 Climbing New York Center
Mon 04:32:46 PM 41.1606 -74.4503 292° West 356 410 23,000 1,650 Climbing New York Center
Mon 04:33:47 PM 41.2019 -74.5847 292° West 379 436 24,700 1,721 Climbing New York Center
Mon 04:34:48 PM 41.2419 -74.7056 294° West 379 436 26,500 1,426 Climbing New York Center
Mon 04:35:49 PM 41.2831 -74.8378 293° West 379 436 27,600 1,017 Climbing New York Center
Mon 04:36:46 PM 41.3203 -74.9672 291° West 386 444 28,500 1,261 Climbing New York Center
Mon 04:37:48 PM 41.3614 -75.1022 292° West 400 460 30,100 1,574 Climbing New York Center
Mon 04:38:48 PM 41.4022 -75.2350 292° West 395 455 31,700 1,475 Climbing New York Center
Mon 04:39:46 PM 41.4389 -75.3647 291° West 389 448 33,000 1,160 Climbing New York Center
Mon 04:40:47 PM 41.4775 -75.4947 292° West 384 442 34,000 942 Climbing New York Center
Mon 04:41:47 PM 41.5161 -75.6222 292° West 379 436 34,900 843 Climbing New York Center
Mon 04:42:48 PM 41.5522 -75.7522 290° West 379 436 35,700 555 Climbing New York Center
Mon 04:43:46 PM 41.5906 -75.8800 292° West 379 436 36,000 153 Climbing New York Center
Mon 04:44:46 PM 41.6264 -76.0158 289° West 379 436 36,000  Level New York Center
Mon 04:45:47 PM 41.6661 -76.1522 291° West 385 443 36,000  Level New York Center
Mon 04:46:47 PM 41.7092 -76.3003 291° West 385 443 36,000  Level New York Center
Mon 04:47:49 PM 41.7467 -76.4367 290° West 391 450 36,000  Level New York Center
Mon 04:48:47 PM 41.7781 -76.5592 289° West 391 450 36,000  Level New York Center
Mon 04:50:27 PM 41.8456 -76.7975 291° West 390 449 36,000  Level Cleveland Center
Mon 04:51:27 PM 41.8833 -76.9347 290° West 390 449 36,000  Level Cleveland Center
Mon 04:52:27 PM 41.9161 -77.0531 290° West 390 449 36,000  Level Cleveland Center
Mon 04:53:27 PM 41.9517 -77.1878 290° West 385 443 36,000  Level Cleveland Center
Mon 04:54:27 PM 41.9889 -77.3256 290° West 385 443 36,000  Level Cleveland Center
Mon 04:55:27 PM 42.0261 -77.4608 290° West 385 443 36,000  Level Cleveland Center
Mon 04:56:27 PM 42.0608 -77.5933 289° West 385 443 36,000  Level Cleveland Center
Mon 04:57:27 PM 42.0956 -77.7261 289° West 385 443 36,000  Level Cleveland Center
Mon 04:58:27 PM 42.1322 -77.8644 290° West 385 443 36,000  Level Cleveland Center
Mon 04:59:27 PM 42.1664 -77.9975 289° West 385 443 36,000  Level Cleveland Center
Mon 05:00:27 PM 42.2028 -78.1306 290° West 385 443 36,000  Level Cleveland Center
Mon 05:01:27 PM 42.2369 -78.2667 289° West 380 437 36,000  Level Cleveland Center
Mon 05:02:27 PM 42.2728 -78.4056 289° West 380 437 36,000  Level Cleveland Center
Mon 05:03:27 PM 42.3067 -78.5336 290° West 380 437 36,000  Level Cleveland Center
Mon 05:04:27 PM 42.3422 -78.6731 289° West 380 437 36,000  Level Cleveland Center
Mon 05:05:27 PM 42.3778 -78.8097 289° West 385 443 36,000  Level Cleveland Center
Mon 05:06:27 PM 42.4111 -78.9464 288° West 385 443 36,000  Level Cleveland Center
Mon 05:07:27 PM 42.4464 -79.0947 288° West 385 443 36,000  Level Cleveland Center
Mon 05:08:27 PM 42.4772 -79.2178 289° West 379 436 36,000  Level Cleveland Center
Mon 05:09:27 PM 42.4975 -79.3611 281° West 379 436 36,000  Level Cleveland Center
Mon 05:10:27 PM 42.5031 -79.4989 273° West 379 436 36,000  Level Cleveland Center
Mon 05:11:27 PM 42.5106 -79.6425 274° West 374 430 36,000  Level Cleveland Center
Mon 05:12:27 PM 42.5178 -79.7831 274° West 379 436 36,000  Level Cleveland Center
Mon 05:13:27 PM 42.5250 -79.9239 274° West 379 436 36,000  Level Cleveland Center
Mon 05:14:27 PM 42.5278 -80.0817 271° West 386 444 36,000  Level Cleveland Center
Mon 05:15:27 PM 42.5347 -80.2253 274° West 386 444 36,000  Level Cleveland Center
Mon 05:16:27 PM 42.5414 -80.3661 274° West 379 436 36,000  Level Cleveland Center
Mon 05:17:27 PM 42.5456 -80.5072 272° West 379 436 36,000  Level Cleveland Center
Mon 05:18:27 PM 42.5519 -80.6422 274° West 379 436 36,000  Level Cleveland Center
Mon 05:19:27 PM 42.5558 -80.7692 272° West 379 436 36,000  Level Cleveland Center
Mon 05:20:27 PM 42.5619 -80.9075 273° West 372 428 36,000  Level Cleveland Center
Mon 05:21:27 PM 42.5656 -81.0483 272° West 372 428 36,000  Level Cleveland Center
Mon 05:22:27 PM 42.5711 -81.1836 273° West 367 422 36,000  Level Cleveland Center
Mon 05:23:27 PM 42.5744 -81.3219 272° West 367 422 36,000  Level Cleveland Center
Mon 05:24:27 PM 42.5839 -81.4603 275° West 367 422 36,000  Level Cleveland Center
Mon 05:25:27 PM 42.6078 -81.5958 284° West 367 422 36,000  Level Cleveland Center
Mon 05:26:27 PM 42.6317 -81.7233 284° West 360 414 36,000  Level Cleveland Center
Mon 05:27:27 PM 42.6553 -81.8706 282° West 354 407 36,000  Level Cleveland Center
Mon 05:28:27 PM 42.6786 -82.0008 284° West 354 407 36,000  Level Cleveland Center
Mon 05:29:27 PM 42.7019 -82.1342 283° West 354 407 36,000  Level Cleveland Center
Mon 05:30:27 PM 42.7231 -82.2647 282° West 354 407 36,000  Level Cleveland Center
Mon 05:31:27 PM 42.7461 -82.3925 284° West 354 407 36,000  Level Cleveland Center
Mon 05:32:27 PM 42.7669 -82.5233 282° West 354 407 36,000  Level Cleveland Center
Mon 05:33:27 PM 42.7897 -82.6542 283° West 354 407 36,000  Level Cleveland Center
Mon 05:34:27 PM 42.8122 -82.7822 284° West 354 407 36,000  Level Cleveland Center
Mon 05:35:27 PM 42.8328 -82.9103 282° West 354 407 36,000  Level Cleveland Center
Mon 05:36:27 PM 42.8531 -83.0386 282° West 354 407 36,000 -200 Level Cleveland Center
Mon 05:37:27 PM 42.8731 -83.1669 282° West 354 407 35,600 -800 Descending Cleveland Center
Mon 05:38:27 PM 42.8931 -83.2953 282° West 354 407 34,400 -1,200 Descending Cleveland Center
Mon 05:39:27 PM 42.9150 -83.4267 283° West 354 407 33,200 -1,200 Descending Cleveland Center
Mon 05:40:27 PM 42.9344 -83.5608 281° West 354 407 32,000 -600 Descending Cleveland Center
Mon 05:41:27 PM 42.9581 -83.6981 283° West 359 413 32,000  Level Cleveland Center
Mon 05:42:27 PM 42.9583 -83.8344 270° West 359 413 32,000  Level Cleveland Center
Mon 05:43:27 PM 42.9461 -83.9672 263° West 359 413 32,000  Level Cleveland Center
Mon 05:44:27 PM 42.9319 -84.0911 261° West 367 422 32,000  Level Cleveland Center
Mon 05:45:27 PM 42.9175 -84.2264 262° West 367 422 32,000  Level Cleveland Center
Mon 05:46:27 PM 42.9067 -84.3706 264° West 367 422 32,000  Level Cleveland Center
Mon 05:47:05 PM 42.8969 -84.4542 261° West 363 418 32,000  Level Chicago Center
Mon 05:48:07 PM 42.8836 -84.5875 262° West 358 412 32,000  Level Chicago Center
Mon 05:49:09 PM 42.8697 -84.7233 262° West 363 418 32,000  Level Chicago Center
Mon 05:50:11 PM 42.8556 -84.8581 262° West 360 414 32,000  Level Chicago Center
Mon 05:51:13 PM 42.8419 -84.9922 262° West 358 412 32,000 -484 Level Chicago Center
Mon 05:52:15 PM 42.8244 -85.1528 262° West 358 412 31,000 -1,065 Descending Chicago Center
Mon 05:53:17 PM 42.8094 -85.2850 261° West 355 409 29,800 -1,210 Descending Chicago Center
Mon 05:54:19 PM 42.7958 -85.4147 262° West 348 400 28,500 -1,306 Descending Chicago Center
Mon 05:55:21 PM 42.7794 -85.5408 260° West 340 391 27,100 -1,355 Descending Chicago Center
Mon 05:56:23 PM 42.7564 -85.6639 256° West 336 387 25,700 -1,355 Descending Chicago Center
Mon 05:57:25 PM 42.7344 -85.7867 256° West 333 383 24,300 -1,355 Descending Chicago Center
Mon 05:58:27 PM 42.7133 -85.9069 257° West 327 376 22,900 -1,500 Descending Chicago Center
Mon 05:59:29 PM 42.6875 -86.0478 256° West 320 368 21,200 -1,403 Descending Chicago Center
Mon 06:00:31 PM 42.6667 -86.1600 256° West 309 356 20,000 -629 Descending Chicago Center
Mon 06:01:33 PM 42.6464 -86.2711 256° West 304 350 19,900 -581 Descending Chicago Center
Mon 06:02:35 PM 42.6250 -86.3822 255° West 304 350 18,800 -1,104 Descending Chicago Center
Mon 06:03:38 PM 42.6039 -86.4922 255° West 302 348 17,600 -1,488 Descending Chicago Center
Mon 06:04:40 PM 42.5847 -86.5997 256° West 296 341 15,700 -2,226 Descending Chicago Center
Mon 06:05:42 PM 42.5633 -86.7053 255° West 291 335 13,000 -2,371 Descending Chicago Center
Mon 06:06:44 PM 42.5336 -86.8328 252° West 296 341 10,800 -1,306 Descending Chicago Center
Mon 06:07:46 PM 42.5067 -86.9289 249° West 281 323 10,300 -823 Descending Chicago Center
Mon 06:08:48 PM 42.4819 -87.0153 249° West 254 292 9,100 -629 Descending Chicago Center
Mon 06:09:50 PM 42.4572 -87.1025 249° West 249 287 9,000 -48 Descending Chicago Center
Mon 06:10:52 PM 42.4294 -87.1892 247° West 252 290 9,000  Level Chicago Center
Mon 06:11:54 PM 42.3575 -87.1942 183° South 249 287 9,000  Level Chicago Center
Mon 06:12:56 PM 42.2750 -87.1964 181° South 247 284 9,000  Level Chicago Center
Mon 06:13:58 PM 42.2047 -87.1997 182° South 251 289 9,000  Level Chicago Center
Mon 06:15:00 PM 42.1364 -87.2042 183° South 249 287 9,000  Level Chicago Center
Mon 06:16:02 PM 42.0681 -87.1986 177° South 247 284 9,000 -484 Level Chicago Center
Mon 06:17:04 PM 42.0103 -87.2236 198° South 256 295 8,000 -484 Descending Chicago Center
Mon 06:18:06 PM 41.9797 -87.3142 246° West 224 258 8,000 -145 Level Chicago Center
Mon 06:19:08 PM 41.9828 -87.3969 273° West 219 252 7,700 -480 Descending Chicago Center
Mon 06:19:46 PM 41.9833 -87.4500 271° West 199 229 7,200 -918 Descending Chicago TRACON
Mon 06:20:46 PM 41.9833 -87.5167 270° West 181 208 6,200 -1,000 Descending Chicago TRACON
Mon 06:21:46 PM 41.9833 -87.5833 270° West 174 200 5,200 -1,000 Descending Chicago TRACON
Mon 06:22:46 PM 41.9833 -87.6500 270° West 174 200 4,200 -950 Descending Chicago TRACON
Mon 06:23:46 PM 41.9833 -87.7000 270° West 173 199 3,300 -893 Descending Chicago TRACON
Mon 06:24:47 PM 41.9833 -87.7667 270° West 167 192 2,400 -843 Descending Chicago TRACON
Mon 06:25:47 PM 41.9833 -87.8167 270° West 127 146 1,600 -750 Descending Chicago TRACON
Mon 06:26:47 PM 41.9833 -87.8667 270° West 136 157 900 -700 Descending Chicago TRACON
Mon 06:28:00 PM 41.9667 -87.9000 270° West  Level FlightAware Approximate

Login

Don't have an account? Register now (free) for customized features, flight alerts, and more!